Time;durP1;ratioP1;P1;durP2;ratioP2;P2;SDS_P1;SDS_P2;PMS_P1;PMS_P2;Temp;Humidity;BMP_temperature;BMP_pressure;BME280_temperature;BME280_humidity;BME280_pressure;Samples;Min_cycle;Max_cycle;Signal;HPM_P1;HPM_P2
2022/07/26 00:01:44;;;;;;;10.98;1.70;;;21.40;88.40;;;;;;5035981;28;20037;-75
2022/07/26 00:04:11;;;;;;;16.23;2.78;;;21.50;88.20;;;;;;5036631;28;20033;-76
2022/07/26 00:06:36;;;;;;;14.50;2.22;;;21.50;88.20;;;;;;5036376;28;20040;-76
2022/07/26 00:09:02;;;;;;;11.88;1.70;;;21.60;88.20;;;;;;5036138;28;20025;-75
2022/07/26 00:11:32;;;;;;;12.38;1.40;;;21.50;88.10;;;;;;5036508;28;20029;-75
2022/07/26 00:13:58;;;;;;;11.82;1.45;;;21.40;88.10;;;;;;5036205;28;20029;-75
2022/07/26 00:16:24;;;;;;;13.18;1.95;;;21.30;88.20;;;;;;5036261;28;20025;-75
2022/07/26 00:18:49;;;;;;;13.27;1.48;;;21.30;88.20;;;;;;5036328;28;20128;-75
2022/07/26 00:21:15;;;;;;;10.73;1.25;;;21.30;88.20;;;;;;5036286;28;20017;-76
2022/07/26 00:23:41;;;;;;;10.68;1.45;;;21.40;88.50;;;;;;5035502;28;20053;-75
2022/07/26 00:26:06;;;;;;;14.65;1.88;;;21.30;88.40;;;;;;5036236;28;20479;-76
2022/07/26 00:28:32;;;;;;;13.27;2.00;;;21.20;88.50;;;;;;5036001;28;20503;-76
2022/07/26 00:30:58;;;;;;;12.20;1.70;;;21.20;88.90;;;;;;5035798;28;20392;-76
2022/07/26 00:33:23;;;;;;;10.35;1.85;;;21.10;89.00;;;;;;5035684;28;20033;-75
2022/07/26 00:35:49;;;;;;;9.55;1.33;;;21.10;89.70;;;;;;5035965;28;20025;-76
2022/07/26 00:38:14;;;;;;;10.18;1.55;;;21.20;89.20;;;;;;5034643;28;20021;-76
2022/07/26 00:40:40;;;;;;;15.13;2.08;;;21.20;89.40;;;;;;5035724;28;20104;-76
2022/07/26 00:43:06;;;;;;;11.85;1.85;;;21.20;89.60;;;;;;5035411;28;20033;-76
2022/07/26 00:45:31;;;;;;;7.47;1.20;;;21.20;89.60;;;;;;5035720;28;20025;-76
2022/07/26 00:47:57;;;;;;;11.27;1.35;;;21.20;89.70;;;;;;5035655;28;20481;-76
2022/07/26 00:50:22;;;;;;;11.32;1.33;;;21.30;89.90;;;;;;5035582;28;20425;-76
2022/07/26 00:52:49;;;;;;;9.75;1.17;;;21.30;89.90;;;;;;5035124;28;20033;-76
2022/07/26 00:55:15;;;;;;;10.10;1.50;;;21.30;90.00;;;;;;5035614;28;20049;-76
2022/07/26 00:57:42;;;;;;;9.95;1.05;;;21.30;90.00;;;;;;5035524;28;20025;-76
2022/07/26 01:00:22;;;;;;;13.00;1.30;;;21.30;90.00;;;;;;5035102;28;20539;-76
2022/07/26 01:02:48;;;;;;;13.10;1.52;;;21.40;90.10;;;;;;5035327;28;20045;-77
2022/07/26 01:05:14;;;;;;;12.52;1.70;;;21.40;90.00;;;;;;5035041;28;20025;-76
2022/07/26 01:07:41;;;;;;;8.73;1.00;;;21.40;90.10;;;;;;5035376;28;20060;-76
2022/07/26 01:10:11;;;;;;;8.88;1.20;;;21.40;90.00;;;;;;5035319;28;20033;-77
2022/07/26 01:12:38;;;;;;;9.80;1.63;;;21.40;90.00;;;;;;5035277;28;20029;-77
2022/07/26 01:15:04;;;;;;;9.90;1.65;;;21.50;90.00;;;;;;5035049;28;20095;-77
2022/07/26 01:17:30;;;;;;;9.02;1.77;;;21.40;90.00;;;;;;5034663;28;20036;-76
2022/07/26 01:19:56;;;;;;;8.02;1.45;;;21.40;90.00;;;;;;5035120;28;20025;-77
2022/07/26 01:22:21;;;;;;;8.38;1.17;;;21.30;90.00;;;;;;5035088;28;20030;-76
2022/07/26 01:24:47;;;;;;;7.32;1.60;;;21.20;90.10;;;;;;5035095;28;20040;-77
2022/07/26 01:27:13;;;;;;;7.88;1.10;;;21.10;90.20;;;;;;5034942;28;20029;-76
2022/07/26 01:29:38;;;;;;;8.00;0.93;;;21.00;90.30;;;;;;5034918;28;20448;-76
2022/07/26 01:32:04;;;;;;;7.47;1.25;;;21.00;90.40;;;;;;5034577;28;20115;-76
2022/07/26 01:34:30;;;;;;;10.02;1.50;;;20.90;90.50;;;;;;5034644;28;20108;-77
2022/07/26 01:36:56;;;;;;;9.32;1.45;;;20.90;90.60;;;;;;5034547;28;20049;-77
2022/07/26 01:39:22;;;;;;;9.93;1.63;;;20.80;90.70;;;;;;5034386;28;20036;-77
2022/07/26 01:41:48;;;;;;;9.65;1.65;;;20.80;90.70;;;;;;5034502;28;20076;-77
2022/07/26 01:44:13;;;;;;;8.90;1.20;;;20.80;90.80;;;;;;5034254;28;20440;-77
2022/07/26 01:46:39;;;;;;;11.23;1.50;;;20.80;90.90;;;;;;5034377;28;20029;-77
2022/07/26 01:49:07;;;;;;;9.57;1.00;;;20.70;90.90;;;;;;5034246;28;20029;-77
2022/07/26 01:51:33;;;;;;;11.68;1.75;;;20.70;91.00;;;;;;5034525;28;20029;-76
2022/07/26 01:54:00;;;;;;;8.32;1.40;;;20.70;91.10;;;;;;5034431;28;20029;-77
2022/07/26 01:56:25;;;;;;;18.48;2.17;;;20.70;91.40;;;;;;5034327;28;20419;-76
2022/07/26 01:58:51;;;;;;;10.18;1.40;;;20.70;91.20;;;;;;5034163;28;20028;-76
2022/07/26 02:01:16;;;;;;;9.43;1.40;;;20.60;91.40;;;;;;5033811;28;20031;-76
2022/07/26 02:03:42;;;;;;;13.55;1.70;;;20.60;91.50;;;;;;5034327;28;20041;-77
2022/07/26 02:06:08;;;;;;;13.63;1.63;;;20.60;91.60;;;;;;5034271;28;20515;-77
2022/07/26 02:08:33;;;;;;;12.65;1.73;;;20.50;91.60;;;;;;5034306;28;20484;-76
2022/07/26 02:10:59;;;;;;;11.60;1.58;;;20.50;91.80;;;;;;5034213;28;20369;-76
2022/07/26 02:13:25;;;;;;;10.70;1.88;;;20.50;91.90;;;;;;5034052;28;20155;-77
2022/07/26 02:15:51;;;;;;;9.85;1.35;;;20.50;91.90;;;;;;5033583;28;20498;-77
2022/07/26 02:18:17;;;;;;;11.10;1.83;;;20.50;92.00;;;;;;5033709;28;20108;-76
2022/07/26 02:20:42;;;;;;;10.45;1.80;;;20.50;92.10;;;;;;5034030;28;20028;-76
2022/07/26 02:23:08;;;;;;;20.38;2.63;;;20.50;92.10;;;;;;5033888;28;20037;-76
2022/07/26 02:25:33;;;;;;;8.20;1.40;;;20.50;92.40;;;;;;5033704;28;20025;-76
2022/07/26 02:28:00;;;;;;;7.32;1.75;;;20.50;92.50;;;;;;5033445;28;20033;-76
2022/07/26 02:30:26;;;;;;;7.57;1.23;;;20.40;92.70;;;;;;5033664;28;20029;-76
2022/07/26 02:32:51;;;;;;;11.68;2.10;;;20.50;92.80;;;;;;5033783;28;20032;-77
2022/07/26 02:35:17;;;;;;;8.07;1.60;;;20.50;93.00;;;;;;5033888;28;20079;-77
2022/07/26 02:37:43;;;;;;;12.32;2.17;;;20.50;93.00;;;;;;5033747;28;20389;-75
2022/07/26 02:40:09;;;;;;;9.38;1.33;;;20.60;93.40;;;;;;5033416;28;20017;-75
2022/07/26 02:42:38;;;;;;;7.35;1.55;;;20.60;93.20;;;;;;5033638;28;20106;-76
2022/07/26 02:45:03;;;;;;;7.00;1.60;;;20.60;93.30;;;;;;5033189;28;20045;-75
2022/07/26 02:47:30;;;;;;;7.20;1.70;;;20.50;93.50;;;;;;5033609;28;20025;-75
2022/07/26 02:49:56;;;;;;;6.90;1.17;;;20.60;93.60;;;;;;5033418;28;20025;-75
2022/07/26 02:52:21;;;;;;;8.25;1.70;;;20.60;93.60;;;;;;5033433;28;20041;-76
2022/07/26 02:54:47;;;;;;;9.98;1.88;;;20.60;93.80;;;;;;5033294;28;20053;-76
2022/07/26 02:57:13;;;;;;;9.63;1.73;;;20.60;93.90;;;;;;5033073;28;20033;-75
2022/07/26 02:59:39;;;;;;;9.77;2.22;;;20.60;94.40;;;;;;5033142;28;20028;-76
2022/07/26 03:02:04;;;;;;;8.20;1.88;;;20.60;94.20;;;;;;5032620;28;20029;-75
2022/07/26 03:04:30;;;;;;;7.47;2.05;;;20.60;94.30;;;;;;5033385;28;20099;-75
2022/07/26 03:06:56;;;;;;;11.02;1.98;;;20.60;94.40;;;;;;5032948;28;20358;-75
2022/07/26 03:09:21;;;;;;;5.93;1.63;;;20.70;94.50;;;;;;5033083;28;20040;-76
2022/07/26 03:11:47;;;;;;;6.95;1.52;;;20.70;94.60;;;;;;5033337;28;20120;-75
2022/07/26 03:14:12;;;;;;;10.45;1.60;;;20.60;94.70;;;;;;5033031;28;20018;-75
2022/07/26 03:16:38;;;;;;;7.07;2.03;;;20.60;94.90;;;;;;5032907;28;20029;-75
2022/07/26 03:19:03;;;;;;;7.72;1.42;;;20.60;95.10;;;;;;5032939;28;20029;-75
2022/07/26 03:21:29;;;;;;;9.07;2.03;;;20.60;95.20;;;;;;5033318;28;20030;-76
2022/07/26 03:23:54;;;;;;;7.90;1.70;;;20.60;95.30;;;;;;5033196;28;20072;-76
2022/07/26 03:26:20;;;;;;;9.00;1.90;;;20.60;95.50;;;;;;5032939;28;20018;-76
2022/07/26 03:28:46;;;;;;;6.97;1.85;;;20.60;95.40;;;;;;5032977;28;20057;-75
2022/07/26 03:31:12;;;;;;;6.68;1.77;;;20.50;95.50;;;;;;5033075;28;20416;-75
2022/07/26 03:33:38;;;;;;;6.53;1.50;;;20.50;95.60;;;;;;5033003;28;20052;-76
2022/07/26 03:36:05;;;;;;;11.38;2.80;;;20.50;95.60;;;;;;5032878;28;20405;-76
2022/07/26 03:38:30;;;;;;;5.63;1.60;;;20.60;95.70;;;;;;5032939;28;20057;-76
2022/07/26 03:40:56;;;;;;;7.55;2.30;;;20.60;95.80;;;;;;5032862;28;20053;-76
2022/07/26 03:43:21;;;;;;;6.65;1.65;;;20.50;95.90;;;;;;5032530;28;20167;-76
2022/07/26 03:45:47;;;;;;;5.60;1.83;;;20.50;96.00;;;;;;5032719;28;20022;-76
2022/07/26 03:48:13;;;;;;;10.13;1.92;;;20.50;96.00;;;;;;5032750;28;20116;-76
2022/07/26 03:50:38;;;;;;;7.78;2.13;;;20.50;96.00;;;;;;5032696;28;20029;-76
2022/07/26 03:53:04;;;;;;;7.07;1.95;;;20.50;96.10;;;;;;5032809;28;20030;-76
2022/07/26 03:58:15;;;;;;;7.68;1.83;;;20.60;96.00;;;;;;5032888;28;20037;-76
2022/07/26 04:00:41;;;;;;;7.38;1.77;;;20.50;96.00;;;;;;5032471;28;20022;-76
2022/07/26 04:03:07;;;;;;;9.57;2.20;;;20.50;96.00;;;;;;5032759;28;20034;-76
2022/07/26 04:05:32;;;;;;;11.90;3.28;;;20.60;96.00;;;;;;5032678;28;20030;-76
2022/07/26 04:07:58;;;;;;;10.50;2.10;;;20.60;96.00;;;;;;5032625;28;20064;-76
2022/07/26 04:10:23;;;;;;;8.30;2.40;;;20.60;96.00;;;;;;5033101;28;20106;-76
2022/07/26 04:12:49;;;;;;;9.77;2.22;;;20.60;96.10;;;;;;5032732;28;20228;-76
2022/07/26 04:15:15;;;;;;;8.10;1.98;;;20.50;96.20;;;;;;5035416;28;20028;-75
2022/07/26 04:17:42;;;;;;;10.32;2.63;;;20.60;96.20;;;;;;5036105;28;20052;-76
2022/07/26 04:20:09;;;;;;;5.90;1.65;;;20.50;96.30;;;;;;5036320;28;20018;-76
2022/07/26 04:22:36;;;;;;;8.98;2.15;;;20.50;96.30;;;;;;5035718;28;20029;-76
2022/07/26 04:25:02;;;;;;;10.32;2.40;;;20.50;96.40;;;;;;5036241;28;20036;-76
2022/07/26 04:27:28;;;;;;;11.98;2.20;;;20.50;96.40;;;;;;5035609;28;20075;-76
2022/07/26 04:29:53;;;;;;;8.77;2.13;;;20.50;96.50;;;;;;5036359;28;20116;-76
2022/07/26 04:32:19;;;;;;;9.45;1.75;;;20.50;96.40;;;;;;5036051;28;20265;-75
2022/07/26 04:34:45;;;;;;;8.05;1.88;;;20.50;96.40;;;;;;5036065;28;20025;-75
2022/07/26 04:37:10;;;;;;;8.82;2.35;;;20.60;96.40;;;;;;5035964;28;20119;-76
2022/07/26 04:39:36;;;;;;;8.43;2.00;;;20.50;96.30;;;;;;5035942;28;20029;-76
2022/07/26 04:42:01;;;;;;;10.70;2.20;;;20.50;96.30;;;;;;5035327;28;20076;-76
2022/07/26 04:44:27;;;;;;;10.85;2.95;;;20.50;96.30;;;;;;5035565;28;20136;-76
2022/07/26 04:46:52;;;;;;;4.70;1.50;;;20.50;96.30;;;;;;5035575;28;20033;-76
2022/07/26 04:49:18;;;;;;;7.13;1.90;;;20.50;96.30;;;;;;5035436;28;20434;-76
2022/07/26 04:51:44;;;;;;;8.25;2.72;;;20.50;96.30;;;;;;5035763;28;20515;-76
2022/07/26 04:54:09;;;;;;;8.35;1.85;;;20.60;96.20;;;;;;5035388;28;20084;-76
2022/07/26 04:56:35;;;;;;;10.80;1.80;;;20.60;96.10;;;;;;5035591;28;20108;-75
2022/07/26 04:59:00;;;;;;;9.65;2.58;;;20.60;96.10;;;;;;5035366;28;20048;-75
2022/07/26 05:01:26;;;;;;;6.43;2.00;;;20.60;96.10;;;;;;5035302;28;20109;-76
2022/07/26 05:03:51;;;;;;;8.23;1.50;;;20.60;96.00;;;;;;5035083;28;20025;-76
2022/07/26 05:06:17;;;;;;;10.13;1.88;;;20.70;96.00;;;;;;5035030;28;20029;-75
2022/07/26 05:08:43;;;;;;;10.77;2.72;;;20.70;96.20;;;;;;5035440;28;20493;-75
2022/07/26 05:11:09;;;;;;;10.80;2.08;;;20.70;95.90;;;;;;5035037;28;20025;-75
2022/07/26 05:13:34;;;;;;;8.93;2.13;;;20.70;95.90;;;;;;5034996;28;20167;-75
2022/07/26 05:16:00;;;;;;;9.15;1.52;;;20.70;96.00;;;;;;5035218;28;20029;-75
2022/07/26 05:18:28;;;;;;;10.43;1.95;;;20.60;96.00;;;;;;5035031;28;20515;-75
2022/07/26 05:20:53;;;;;;;9.55;1.67;;;20.60;96.00;;;;;;5035184;28;20026;-75
2022/07/26 05:23:19;;;;;;;12.68;2.38;;;20.60;95.90;;;;;;5034543;28;20248;-75
2022/07/26 05:25:45;;;;;;;9.18;1.88;;;20.60;95.90;;;;;;5034316;28;20108;-75
2022/07/26 05:28:10;;;;;;;9.98;1.98;;;20.60;95.90;;;;;;5034552;28;20064;-75
2022/07/26 05:30:36;;;;;;;7.78;1.67;;;20.60;96.00;;;;;;5034816;28;20029;-76
2022/07/26 05:33:02;;;;;;;10.07;2.15;;;20.60;96.00;;;;;;5034628;28;20056;-75
2022/07/26 05:35:27;;;;;;;9.40;2.17;;;20.60;96.00;;;;;;5034633;28;20028;-75
2022/07/26 05:37:53;;;;;;;5.80;1.83;;;20.60;96.00;;;;;;5034419;28;20053;-75
2022/07/26 05:40:18;;;;;;;10.43;1.98;;;20.50;96.10;;;;;;5034421;28;20033;-75
2022/07/26 05:42:44;;;;;;;9.40;1.92;;;20.50;96.20;;;;;;5034334;28;20091;-75
2022/07/26 05:45:10;;;;;;;7.00;2.05;;;20.60;96.20;;;;;;5034036;28;20144;-75
2022/07/26 05:47:36;;;;;;;7.68;1.63;;;20.60;96.10;;;;;;5034048;28;20045;-76
2022/07/26 05:50:01;;;;;;;7.93;1.40;;;20.60;95.90;;;;;;5034582;28;20032;-75
2022/07/26 05:52:27;;;;;;;10.40;1.40;;;20.50;95.80;;;;;;5034286;28;20032;-75
2022/07/26 05:54:53;;;;;;;6.10;1.35;;;20.50;95.90;;;;;;5033931;28;20116;-76
2022/07/26 05:57:18;;;;;;;5.85;1.20;;;20.50;96.10;;;;;;5034250;28;20022;-75
2022/07/26 05:59:44;;;;;;;5.82;1.27;;;20.40;96.00;;;;;;5034214;28;20444;-75
2022/07/26 06:02:09;;;;;;;6.47;1.55;;;20.50;96.00;;;;;;5033927;28;20034;-75
2022/07/26 06:04:35;;;;;;;6.68;0.90;;;20.60;96.00;;;;;;5033754;28;20078;-75
2022/07/26 06:07:00;;;;;;;6.28;1.13;;;20.60;95.90;;;;;;5034193;28;20369;-75
2022/07/26 06:09:26;;;;;;;6.22;0.73;;;20.70;95.90;;;;;;5033856;28;20053;-75
2022/07/26 06:11:52;;;;;;;6.38;1.35;;;20.70;95.80;;;;;;5034212;28;20423;-75
2022/07/26 06:14:19;;;;;;;4.93;0.93;;;20.80;95.50;;;;;;5033726;28;20022;-75
2022/07/26 06:16:45;;;;;;;5.70;0.88;;;20.80;95.20;;;;;;5034130;28;20026;-76
2022/07/26 06:19:11;;;;;;;3.17;0.80;;;20.70;95.00;;;;;;5034010;28;20026;-75
2022/07/26 06:21:37;;;;;;;5.45;0.50;;;20.80;95.00;;;;;;5033621;28;20022;-76
2022/07/26 06:24:03;;;;;;;6.53;0.80;;;20.70;94.80;;;;;;5033375;28;20032;-76
2022/07/26 06:26:28;;;;;;;3.85;0.55;;;20.70;94.70;;;;;;5033803;28;20384;-75
2022/07/26 06:28:54;;;;;;;6.00;0.95;;;20.70;94.70;;;;;;5033566;28;20053;-75
2022/07/26 06:31:19;;;;;;;6.15;0.73;;;20.60;94.70;;;;;;5033469;28;20040;-75
2022/07/26 06:33:45;;;;;;;3.15;0.45;;;20.60;94.60;;;;;;5033163;28;20025;-75
2022/07/26 06:36:11;;;;;;;3.20;0.47;;;20.60;94.50;;;;;;5033086;28;20022;-75
2022/07/26 06:38:37;;;;;;;5.75;0.50;;;20.60;94.40;;;;;;5033236;28;20036;-75
2022/07/26 06:41:02;;;;;;;3.70;0.52;;;20.60;94.20;;;;;;5033620;28;20434;-75
2022/07/26 06:43:28;;;;;;;5.45;0.60;;;20.60;94.20;;;;;;5032753;28;20060;-75
2022/07/26 06:45:53;;;;;;;4.53;0.90;;;20.60;94.20;;;;;;5033227;28;20109;-76
2022/07/26 06:48:19;;;;;;;5.20;0.55;;;20.50;94.20;;;;;;5033390;28;20029;-76
2022/07/26 06:50:44;;;;;;;5.22;0.50;;;20.60;94.30;;;;;;5033478;28;20461;-76
2022/07/26 06:53:10;;;;;;;4.90;0.60;;;20.50;94.30;;;;;;5033240;28;20033;-76
2022/07/26 06:55:36;;;;;;;7.78;1.02;;;20.50;94.30;;;;;;5033242;28;20025;-76
2022/07/26 06:58:01;;;;;;;3.50;0.60;;;20.50;94.30;;;;;;5033420;28;20029;-76
2022/07/26 07:00:27;;;;;;;5.40;0.70;;;20.50;94.30;;;;;;5033329;28;20018;-76
2022/07/26 07:02:53;;;;;;;2.03;0.40;;;20.60;94.40;;;;;;5032905;28;20040;-76
2022/07/26 07:05:18;;;;;;;4.32;0.70;;;20.60;94.40;;;;;;5033417;28;20041;-76
2022/07/26 07:07:44;;;;;;;5.15;0.65;;;20.70;94.50;;;;;;5033071;28;20095;-76
2022/07/26 07:10:09;;;;;;;3.95;0.70;;;20.60;94.70;;;;;;5033460;28;20026;-76
2022/07/26 07:12:35;;;;;;;6.63;0.70;;;20.60;94.90;;;;;;5033019;28;20061;-76
2022/07/26 07:15:01;;;;;;;4.68;0.80;;;20.70;95.30;;;;;;5033348;28;20033;-76
2022/07/26 07:17:26;;;;;;;3.53;0.70;;;20.70;95.70;;;;;;5032970;28;20368;-76
2022/07/26 07:19:52;;;;;;;4.70;0.60;;;20.50;96.50;;;;;;5033020;28;20072;-76
2022/07/26 07:22:18;;;;;;;4.22;0.70;;;20.40;96.70;;;;;;5032534;28;20056;-76
2022/07/26 07:24:43;;;;;;;3.33;0.90;;;20.40;96.80;;;;;;5032985;28;20026;-75
2022/07/26 07:27:10;;;;;;;5.97;0.90;;;20.40;97.10;;;;;;5033147;28;20108;-76
2022/07/26 07:29:35;;;;;;;3.58;1.00;;;20.30;97.40;;;;;;5033000;28;20029;-76
2022/07/26 07:32:01;;;;;;;1.85;0.30;;;20.20;97.90;;;;;;5032829;28;20033;-75
2022/07/26 07:34:27;;;;;;;3.88;0.50;;;20.20;97.90;;;;;;5033058;28;20032;-76
2022/07/26 07:36:52;;;;;;;3.67;1.13;;;20.30;97.80;;;;;;5032870;28;20064;-75
2022/07/26 07:39:18;;;;;;;2.35;0.60;;;20.40;97.70;;;;;;5032673;28;20465;-75
2022/07/26 07:41:45;;;;;;;3.53;0.60;;;20.30;97.60;;;;;;5032605;28;20555;-76
2022/07/26 07:44:11;;;;;;;4.78;0.90;;;20.30;97.70;;;;;;5032784;28;20049;-75
2022/07/26 07:46:37;;;;;;;3.38;0.60;;;20.30;97.80;;;;;;5032866;28;20396;-76
2022/07/26 07:49:02;;;;;;;3.47;0.73;;;20.30;97.90;;;;;;5035776;28;20107;-76
2022/07/26 07:51:28;;;;;;;6.90;1.17;;;20.20;98.00;;;;;;5036661;28;20164;-76
2022/07/26 07:53:54;;;;;;;4.75;1.00;;;20.10;98.00;;;;;;5036898;28;20017;-76
2022/07/26 07:56:20;;;;;;;7.10;1.00;;;20.10;98.00;;;;;;5036616;28;20037;-76
2022/07/26 07:58:45;;;;;;;3.65;0.70;;;20.10;98.20;;;;;;5036434;28;20385;-76
2022/07/26 08:01:11;;;;;;;4.50;0.50;;;20.10;98.30;;;;;;5036710;28;20033;-77
2022/07/26 08:03:37;;;;;;;4.20;0.70;;;20.00;98.20;;;;;;5036305;28;20083;-76
2022/07/26 08:06:05;;;;;;;3.75;0.40;;;20.00;98.50;;;;;;5036276;28;20354;-76
2022/07/26 08:08:31;;;;;;;2.58;0.32;;;20.10;98.60;;;;;;5036205;28;20064;-74
2022/07/26 08:10:57;;;;;;;2.70;0.65;;;20.10;98.40;;;;;;5036298;28;20029;-76
2022/07/26 08:13:22;;;;;;;2.90;0.70;;;20.00;98.80;;;;;;5036281;28;20381;-76
2022/07/26 08:15:50;;;;;;;3.33;0.30;;;19.90;98.70;;;;;;5036466;28;20025;-76
2022/07/26 08:18:15;;;;;;;2.13;0.38;;;19.80;98.70;;;;;;5036209;28;20104;-75
2022/07/26 08:20:41;;;;;;;2.45;0.40;;;19.90;98.80;;;;;;5036009;28;20060;-76
2022/07/26 08:23:07;;;;;;;2.40;0.35;;;19.90;98.70;;;;;;5035700;28;20033;-76
2022/07/26 08:25:32;;;;;;;4.50;0.40;;;19.90;98.70;;;;;;5036180;28;20026;-75
2022/07/26 08:27:58;;;;;;;1.85;0.25;;;19.80;98.90;;;;;;5035963;28;20024;-76
2022/07/26 08:30:23;;;;;;;3.47;0.50;;;19.70;99.10;;;;;;5035883;28;20081;-76
2022/07/26 08:32:49;;;;;;;2.78;0.20;;;19.70;99.40;;;;;;5035947;28;20033;-75
2022/07/26 08:35:14;;;;;;;2.28;0.20;;;19.70;99.50;;;;;;5035732;28;20101;-76
2022/07/26 08:37:40;;;;;;;0.93;0.15;;;19.70;99.30;;;;;;5035997;28;20029;-76
2022/07/26 08:40:06;;;;;;;1.40;0.20;;;19.80;99.20;;;;;;5035710;28;20032;-76
2022/07/26 08:42:32;;;;;;;1.58;0.20;;;19.90;99.00;;;;;;5035846;28;20034;-76
2022/07/26 08:44:59;;;;;;;2.60;0.30;;;20.00;98.80;;;;;;5035496;28;20417;-75
2022/07/26 08:47:24;;;;;;;9.25;0.20;;;20.00;99.00;;;;;;5035473;28;20079;-76
2022/07/26 08:49:50;;;;;;;2.72;0.30;;;20.10;98.90;;;;;;5035391;28;20034;-76
2022/07/26 08:52:16;;;;;;;2.85;0.15;;;20.20;98.60;;;;;;5035812;28;20037;-76
2022/07/26 08:54:47;;;;;;;1.50;0.40;;;20.10;98.60;;;;;;5035397;28;20031;-76
2022/07/26 08:57:13;;;;;;;1.60;0.38;;;20.20;98.60;;;;;;5035712;28;20384;-76
2022/07/26 08:59:39;;;;;;;1.63;0.25;;;20.30;98.90;;;;;;5034676;28;20025;-76
2022/07/26 09:02:08;;;;;;;2.72;0.28;;;20.20;98.50;;;;;;5035219;28;20040;-76
2022/07/26 09:04:36;;;;;;;1.65;0.17;;;20.10;98.70;;;;;;5035146;28;20064;-75
2022/07/26 09:07:09;;;;;;;1.17;0.22;;;20.20;98.80;;;;;;5035176;28;20040;-76
2022/07/26 09:09:37;;;;;;;;;;;20.30;98.60;;;;;;5035412;28;20025;-76
2022/07/26 09:12:17;;;;;;;1.10;0.10;;;20.30;98.60;;;;;;5035054;28;19952;-76
2022/07/26 09:14:47;;;;;;;0.88;0.15;;;20.30;98.40;;;;;;5034913;28;20029;-76
2022/07/26 09:17:18;;;;;;;2.05;0.13;;;20.40;98.10;;;;;;5035244;28;20022;-76
2022/07/26 09:19:44;;;;;;;1.70;0.20;;;20.50;97.90;;;;;;5035219;28;20037;-75
2022/07/26 09:22:12;;;;;;;2.55;0.20;;;20.50;97.30;;;;;;5034910;28;20030;-76
2022/07/26 09:24:46;;;;;;;2.92;0.20;;;20.40;97.20;;;;;;5034770;28;20071;-76
2022/07/26 09:27:15;;;;;;;1.35;0.10;;;20.40;97.00;;;;;;5034696;28;20144;-75
2022/07/26 09:29:41;;;;;;;2.05;0.15;;;20.40;96.60;;;;;;5034885;28;20037;-75
2022/07/26 09:32:16;;;;;;;1.10;0.20;;;20.30;96.90;;;;;;5034808;28;20049;-76
2022/07/26 09:34:43;;;;;;;2.53;0.17;;;20.30;97.10;;;;;;5034743;28;20032;-76
2022/07/26 09:37:08;;;;;;;4.32;0.20;;;20.40;97.10;;;;;;5034332;28;20465;-76
2022/07/26 09:39:57;;;;;;;3.95;0.20;;;20.60;97.00;;;;;;5034734;28;20080;-76
2022/07/26 09:42:24;;;;;;;2.47;0.20;;;20.50;96.30;;;;;;5034797;28;20030;-76
2022/07/26 09:44:50;;;;;;;4.22;0.20;;;20.50;96.30;;;;;;5034179;28;20520;-76
2022/07/26 09:47:17;;;;;;;0.98;0.10;;;20.60;96.20;;;;;;5034782;28;20022;-76
2022/07/26 09:49:42;;;;;;;1.67;0.15;;;20.60;96.00;;;;;;5034264;28;20037;-76
2022/07/26 09:52:19;;;;;;;0.50;0.10;;;20.60;95.90;;;;;;5034272;28;20028;-76
2022/07/26 09:54:48;;;;;;;2.88;0.20;;;20.70;95.90;;;;;;5034306;28;20465;-76
2022/07/26 09:57:18;;;;;;;3.17;0.30;;;20.80;95.90;;;;;;5034294;28;20036;-76
2022/07/26 09:59:45;;;;;;;2.92;0.20;;;20.90;95.80;;;;;;5034208;28;20053;-76
2022/07/26 10:02:12;;;;;;;3.22;0.20;;;21.00;95.50;;;;;;5033728;28;20393;-76
2022/07/26 10:04:40;;;;;;;2.42;0.20;;;20.80;94.70;;;;;;5034405;28;20108;-75
2022/07/26 10:07:06;;;;;;;1.13;0.10;;;20.80;95.10;;;;;;5033981;28;20028;-76
2022/07/26 10:09:47;;;;;;;1.33;0.10;;;20.60;95.10;;;;;;5034271;28;20029;-76
2022/07/26 10:12:15;;;;;;;4.43;0.30;;;20.70;95.50;;;;;;5032944;28;20483;-76
2022/07/26 10:14:45;;;;;;;2.65;0.65;;;20.90;95.60;;;;;;5033972;28;20033;-76
2022/07/26 10:17:30;;;;;;;2.22;0.20;;;21.00;95.40;;;;;;5033882;28;20029;-76
2022/07/26 10:20:04;;;;;;;3.53;0.20;;;20.90;95.30;;;;;;5033898;28;20049;-76
2022/07/26 10:22:41;;;;;;;2.05;0.20;;;20.80;95.50;;;;;;5033666;28;20083;-76
2022/07/26 10:25:18;;;;;;;2.35;0.32;;;20.60;95.40;;;;;;5034062;28;20079;-76
2022/07/26 10:27:52;;;;;;;1.98;0.20;;;20.60;95.50;;;;;;5033933;28;20017;-76
2022/07/26 10:30:18;;;;;;;2.05;0.20;;;20.70;95.40;;;;;;5033644;28;20033;-76
2022/07/26 10:32:55;;;;;;;2.00;0.20;;;20.70;95.70;;;;;;5033596;28;20440;-76
2022/07/26 10:35:40;;;;;;;3.63;0.40;;;20.30;95.50;;;;;;5033595;28;20033;-75
2022/07/26 10:38:28;;;;;;;4.30;0.30;;;20.10;96.10;;;;;;5033474;28;20518;-76
2022/07/26 10:40:59;;;;;;;1.88;0.10;;;20.00;96.30;;;;;;5033288;28;20038;-75
2022/07/26 10:43:25;;;;;;;2.50;0.22;;;19.90;96.40;;;;;;5033082;28;20083;-76
2022/07/26 10:46:19;;;;;;;1.88;0.25;;;20.00;96.80;;;;;;5033175;28;20022;-76
2022/07/26 10:48:57;;;;;;;2.30;0.20;;;20.00;96.90;;;;;;5033132;28;20072;-77
2022/07/26 10:51:28;;;;;;;3.10;0.40;;;20.20;97.00;;;;;;5033448;28;20483;-76
2022/07/26 10:54:02;;;;;;;4.00;0.30;;;20.30;97.30;;;;;;5033152;28;20044;-76
2022/07/26 10:56:29;;;;;;;2.40;0.20;;;20.30;97.50;;;;;;5033458;28;20033;-76
2022/07/26 10:58:55;;;;;;;6.22;0.20;;;20.40;97.90;;;;;;5033294;28;20025;-76
2022/07/26 11:01:21;;;;;;;1.35;0.20;;;20.50;97.80;;;;;;5033341;28;20167;-77
2022/07/26 11:03:46;;;;;;;4.50;0.50;;;20.60;97.80;;;;;;5033221;28;20041;-76
2022/07/26 11:06:16;;;;;;;1.35;0.22;;;20.80;97.90;;;;;;5033097;28;20025;-76
2022/07/26 11:08:43;;;;;;;2.75;0.50;;;21.00;98.70;;;;;;5033203;28;20416;-76
2022/07/26 11:11:09;;;;;;;2.35;0.30;;;21.00;98.20;;;;;;5033098;28;20029;-75
2022/07/26 11:13:36;;;;;;;2.50;0.28;;;21.20;97.90;;;;;;5033006;28;20034;-77
2022/07/26 11:16:04;;;;;;;3.58;0.30;;;21.40;98.10;;;;;;5033341;28;20029;-77
2022/07/26 11:18:35;;;;;;;2.92;0.30;;;21.60;97.30;;;;;;5033394;28;20036;-76
2022/07/26 11:21:09;;;;;;;2.63;0.30;;;21.50;96.50;;;;;;5032946;28;20057;-75
2022/07/26 11:23:40;;;;;;;2.40;0.30;;;21.40;96.30;;;;;;5035282;28;20029;-76
2022/07/26 11:26:17;;;;;;;3.97;0.40;;;21.40;97.00;;;;;;5036932;28;20021;-76
2022/07/26 11:28:56;;;;;;;4.65;0.30;;;21.60;96.00;;;;;;5036680;28;20032;-76
2022/07/26 11:31:25;;;;;;;2.20;0.20;;;21.60;95.60;;;;;;5036990;28;20026;-76
2022/07/26 11:33:52;;;;;;;2.50;0.20;;;21.80;95.60;;;;;;5037237;28;20029;-76
2022/07/26 11:36:39;;;;;;;2.75;0.30;;;21.80;96.00;;;;;;5036757;28;20021;-76
2022/07/26 11:39:29;;;;;;;4.53;0.30;;;22.00;95.60;;;;;;5036927;28;20392;-76
2022/07/26 11:42:04;;;;;;;3.03;0.20;;;22.20;95.20;;;;;;5036922;28;20026;-76
2022/07/26 11:44:31;;;;;;;2.67;0.40;;;22.30;94.70;;;;;;5036705;28;20507;-76
2022/07/26 11:46:56;;;;;;;3.00;0.30;;;22.40;94.70;;;;;;5036790;28;20087;-76
2022/07/26 11:49:25;;;;;;;4.38;0.30;;;22.40;93.90;;;;;;5036816;28;20469;-76
2022/07/26 11:51:58;;;;;;;4.32;0.30;;;22.30;92.90;;;;;;5036496;28;20386;-76
2022/07/26 11:54:29;;;;;;;3.03;0.30;;;22.10;93.00;;;;;;5036739;28;20108;-76
2022/07/26 11:57:00;;;;;;;4.32;0.55;;;21.90;93.00;;;;;;5036708;28;20120;-76
2022/07/26 11:59:28;;;;;;;6.25;0.43;;;21.80;94.10;;;;;;5036273;28;20152;-76
2022/07/26 12:01:55;;;;;;;4.00;0.40;;;21.80;94.20;;;;;;5036587;28;20022;-76
2022/07/26 12:04:25;;;;;;;2.90;0.30;;;22.00;94.20;;;;;;5036773;28;20424;-76
2022/07/26 12:06:52;;;;;;;2.90;0.20;;;22.10;93.40;;;;;;5036343;28;20029;-76
2022/07/26 12:09:34;;;;;;;2.10;0.20;;;22.20;92.40;;;;;;5036469;28;20112;-76
2022/07/26 12:12:05;;;;;;;3.83;0.20;;;22.20;92.10;;;;;;5036269;28;20032;-76
2022/07/26 12:14:36;;;;;;;2.92;0.77;;;22.30;91.90;;;;;;5036141;28;20476;-76
2022/07/26 12:17:16;;;;;;;3.85;0.30;;;22.40;92.20;;;;;;5036031;28;20517;-76
2022/07/26 12:19:43;;;;;;;3.45;0.40;;;22.50;92.50;;;;;;5036536;28;20060;-75
2022/07/26 12:22:17;;;;;;;5.50;0.40;;;22.60;92.10;;;;;;5036033;28;20025;-76
2022/07/26 12:24:50;;;;;;;3.35;0.30;;;22.60;91.20;;;;;;5036045;28;20033;-77
2022/07/26 12:27:22;;;;;;;4.03;0.50;;;22.50;91.00;;;;;;5035868;28;20025;-75
2022/07/26 12:29:49;;;;;;;1.33;0.22;;;22.50;90.80;;;;;;5035942;28;20036;-75
2022/07/26 12:32:18;;;;;;;4.95;0.47;;;22.60;91.00;;;;;;5035693;28;20026;-77
2022/07/26 12:34:56;;;;;;;2.72;0.20;;;22.60;90.30;;;;;;5034716;28;20037;-76
2022/07/26 12:37:22;;;;;;;2.35;0.30;;;22.70;90.30;;;;;;5035878;28;20029;-75
2022/07/26 12:40:09;;;;;;;2.35;0.20;;;22.70;90.40;;;;;;5036154;28;20147;-76
2022/07/26 12:42:37;;;;;;;3.08;0.38;;;22.90;90.30;;;;;;5035828;28;20034;-76
2022/07/26 12:45:09;;;;;;;3.50;0.30;;;23.00;89.80;;;;;;5035348;28;20072;-75
2022/07/26 12:47:36;;;;;;;3.58;0.40;;;23.00;88.90;;;;;;5035616;28;20026;-76
2022/07/26 12:50:07;;;;;;;2.28;0.28;;;23.10;88.40;;;;;;5035631;28;20040;-77